Time;durP1;ratioP1;P1;durP2;ratioP2;P2;SDS_P1;SDS_P2;PMS_P1;PMS_P2;Temp;Humidity;BMP_temperature;BMP_pressure;BME280_temperature;BME280_humidity;BME280_pressure;Samples;Min_cycle;Max_cycle;Signal;HPM_P1;HPM_P2
2022/08/24 00:01:17;;;;;;;2.10;1.60;;;24.20;62.30;;;;;;5112672;28;20043;-69
2022/08/24 00:03:44;;;;;;;2.00;1.80;;;24.20;62.30;;;;;;5112441;28;20036;-69
2022/08/24 00:06:12;;;;;;;2.72;1.60;;;24.20;62.40;;;;;;5111873;28;20039;-69
2022/08/24 00:08:39;;;;;;;1.85;1.73;;;24.20;62.40;;;;;;5113799;28;20071;-69
2022/08/24 00:11:05;;;;;;;2.70;1.25;;;24.20;62.40;;;;;;5112782;28;20039;-69
2022/08/24 00:13:32;;;;;;;1.75;1.48;;;24.20;62.40;;;;;;5112905;28;20047;-69
2022/08/24 00:15:58;;;;;;;1.42;1.33;;;24.20;62.40;;;;;;5112643;28;20163;-69
2022/08/24 00:18:24;;;;;;;1.33;1.20;;;24.20;62.40;;;;;;5112376;28;20053;-70
2022/08/24 00:20:50;;;;;;;1.55;1.40;;;24.20;62.40;;;;;;5112240;28;20052;-69
2022/08/24 00:23:16;;;;;;;2.33;1.55;;;24.20;62.40;;;;;;5112264;28;20462;-69
2022/08/24 00:25:42;;;;;;;1.88;1.77;;;24.20;62.40;;;;;;5112244;28;20119;-70
2022/08/24 00:28:08;;;;;;;1.80;1.70;;;24.20;62.50;;;;;;5112480;28;20070;-70
2022/08/24 00:30:34;;;;;;;2.47;1.80;;;24.20;62.50;;;;;;5112367;28;20482;-70
2022/08/24 00:33:00;;;;;;;1.83;1.60;;;24.20;62.50;;;;;;5112341;28;20481;-70
2022/08/24 00:35:26;;;;;;;1.67;1.58;;;24.20;62.50;;;;;;5112039;28;20043;-69
2022/08/24 00:37:52;;;;;;;2.08;1.50;;;24.20;62.50;;;;;;5112284;28;20040;-70
2022/08/24 00:43:03;;;;;;;3.25;2.08;;;24.20;62.50;;;;;;5089408;27;20360;-70
2022/08/24 00:45:34;;;;;;;1.85;1.75;;;24.10;62.50;;;;;;5105054;28;20043;-69
2022/08/24 00:48:06;;;;;;;1.95;1.60;;;24.10;62.50;;;;;;5088024;28;20043;-69
2022/08/24 00:50:39;;;;;;;2.17;1.85;;;24.10;62.50;;;;;;5088073;28;20032;-70
2022/08/24 00:53:10;;;;;;;4.03;2.00;;;24.10;62.50;;;;;;5087974;28;20040;-70
2022/08/24 00:55:42;;;;;;;2.00;1.90;;;24.20;63.30;;;;;;5087971;28;20080;-70
2022/08/24 00:58:14;;;;;;;1.70;1.60;;;24.10;62.50;;;;;;5088065;28;20039;-70
2022/08/24 01:00:44;;;;;;;1.65;1.35;;;24.10;62.50;;;;;;5088004;28;20098;-69
2022/08/24 01:03:12;;;;;;;1.50;1.38;;;24.10;62.50;;;;;;5071339;28;20040;-69
2022/08/24 01:05:39;;;;;;;1.90;1.80;;;24.10;62.50;;;;;;5088078;28;20063;-69
2022/08/24 01:08:07;;;;;;;1.50;1.40;;;24.10;62.50;;;;;;5087982;28;20050;-70
2022/08/24 01:10:38;;;;;;;2.60;1.58;;;24.10;62.50;;;;;;5088024;28;20044;-70
2022/08/24 01:13:06;;;;;;;1.73;1.50;;;24.10;62.50;;;;;;5087563;28;20087;-69
2022/08/24 01:15:36;;;;;;;2.10;1.90;;;24.10;62.50;;;;;;5087605;28;20048;-70
2022/08/24 01:20:57;;;;;;;2.05;1.80;;;24.10;62.50;;;;;;5087471;28;20048;-70
2022/08/24 01:26:22;;;;;;;2.15;1.95;;;24.10;62.50;;;;;;5130306;27;20400;-70
2022/08/24 01:28:54;;;;;;;1.95;1.85;;;24.00;62.50;;;;;;5128933;28;20051;-70
2022/08/24 01:31:22;;;;;;;1.77;1.63;;;24.00;62.50;;;;;;5129165;28;20059;-69
2022/08/24 01:33:50;;;;;;;2.00;1.73;;;24.10;62.60;;;;;;5128796;28;20047;-69
2022/08/24 01:36:26;;;;;;;1.83;1.63;;;24.00;62.60;;;;;;5128997;28;20043;-69
2022/08/24 01:38:53;;;;;;;1.92;1.83;;;24.10;62.60;;;;;;5128721;28;20047;-70
2022/08/24 01:41:19;;;;;;;1.50;1.40;;;24.00;62.60;;;;;;5128929;27;20057;-70
2022/08/24 01:43:44;;;;;;;2.65;1.83;;;24.00;62.50;;;;;;5128499;27;20118;-70
2022/08/24 01:46:10;;;;;;;1.60;1.50;;;24.00;62.60;;;;;;5128520;28;20039;-70
2022/08/24 01:48:36;;;;;;;1.70;1.50;;;24.00;62.60;;;;;;5128780;28;20036;-70
2022/08/24 01:51:02;;;;;;;1.98;1.77;;;24.00;62.50;;;;;;5128485;28;20031;-69
2022/08/24 01:53:28;;;;;;;1.67;1.58;;;24.00;62.60;;;;;;5128462;27;20114;-70
2022/08/24 01:55:54;;;;;;;1.63;1.52;;;24.00;62.70;;;;;;5128683;28;20114;-70
2022/08/24 01:58:19;;;;;;;1.45;1.35;;;24.00;62.50;;;;;;5145808;27;20590;-69
2022/08/24 02:00:45;;;;;;;2.08;1.70;;;24.00;62.60;;;;;;5128258;28;20043;-70
2022/08/24 02:03:11;;;;;;;2.10;1.90;;;24.00;62.60;;;;;;5128612;28;20047;-70
2022/08/24 02:05:37;;;;;;;1.65;1.55;;;24.00;62.60;;;;;;5129300;28;20040;-70
2022/08/24 02:08:03;;;;;;;2.20;1.77;;;24.00;62.60;;;;;;5128087;28;20555;-69
2022/08/24 02:10:28;;;;;;;2.22;1.73;;;24.00;62.60;;;;;;5129818;27;20035;-70
2022/08/24 02:12:57;;;;;;;3.53;1.98;;;23.90;62.50;;;;;;5128335;28;20379;-70
2022/08/24 02:15:26;;;;;;;1.85;1.75;;;24.00;62.60;;;;;;5128365;28;20058;-69
2022/08/24 02:17:53;;;;;;;2.03;1.92;;;23.90;62.50;;;;;;5128096;28;20047;-70
2022/08/24 02:20:20;;;;;;;1.67;1.58;;;24.00;62.60;;;;;;5127863;28;20502;-70
2022/08/24 02:22:47;;;;;;;1.60;1.50;;;23.90;62.50;;;;;;5128309;28;20045;-69
2022/08/24 02:25:13;;;;;;;2.47;2.28;;;23.90;62.60;;;;;;5127546;28;20043;-70
2022/08/24 02:27:39;;;;;;;2.53;1.63;;;23.90;62.60;;;;;;5127896;28;20048;-70
2022/08/24 02:30:05;;;;;;;1.80;1.70;;;23.90;62.60;;;;;;5129058;28;20077;-69
2022/08/24 02:32:30;;;;;;;1.73;1.63;;;23.90;62.60;;;;;;5127996;28;20394;-70
2022/08/24 02:34:56;;;;;;;1.95;1.85;;;23.90;62.60;;;;;;5128869;28;20122;-70
2022/08/24 02:37:22;;;;;;;2.00;1.40;;;23.90;62.60;;;;;;5116963;28;20039;-69
2022/08/24 02:39:47;;;;;;;1.98;1.38;;;23.90;62.60;;;;;;5096926;28;20052;-70
2022/08/24 02:42:14;;;;;;;1.55;1.38;;;23.90;62.60;;;;;;5114245;28;20051;-70
2022/08/24 02:44:40;;;;;;;1.80;1.70;;;23.90;63.40;;;;;;5113702;28;20517;-70
2022/08/24 02:47:06;;;;;;;1.75;1.52;;;23.90;62.60;;;;;;5113797;28;20048;-70
2022/08/24 02:49:34;;;;;;;1.35;1.25;;;23.90;62.60;;;;;;5114337;28;20481;-70
2022/08/24 02:52:00;;;;;;;1.77;1.67;;;23.90;62.70;;;;;;5113831;28;20051;-70
2022/08/24 02:54:25;;;;;;;1.60;1.50;;;23.90;62.60;;;;;;5115006;28;20065;-70
2022/08/24 02:56:54;;;;;;;1.98;1.88;;;23.90;62.60;;;;;;5114750;28;20084;-70
2022/08/24 02:59:21;;;;;;;1.85;1.70;;;23.80;62.60;;;;;;5113638;28;20050;-69
2022/08/24 03:01:47;;;;;;;1.77;1.50;;;23.90;62.60;;;;;;5114789;28;20035;-70
2022/08/24 03:04:12;;;;;;;2.30;1.50;;;23.90;62.60;;;;;;5113427;28;20051;-69
2022/08/24 03:06:38;;;;;;;1.40;1.30;;;23.90;62.60;;;;;;5113455;28;20032;-69
2022/08/24 03:09:05;;;;;;;1.65;1.55;;;23.90;62.60;;;;;;5113363;28;20119;-70
2022/08/24 03:11:31;;;;;;;1.50;1.40;;;23.80;62.50;;;;;;5113609;28;20535;-70
2022/08/24 03:13:57;;;;;;;1.90;1.80;;;23.80;62.50;;;;;;5113610;28;20032;-69
2022/08/24 03:16:24;;;;;;;1.75;1.40;;;23.80;62.50;;;;;;5113503;28;20058;-70
2022/08/24 03:18:50;;;;;;;1.67;1.58;;;23.80;62.60;;;;;;5114538;28;20443;-70
2022/08/24 03:21:16;;;;;;;1.48;1.25;;;23.80;62.50;;;;;;5114245;28;20123;-69
2022/08/24 03:23:42;;;;;;;1.88;1.77;;;23.80;62.50;;;;;;5113384;28;20119;-70
2022/08/24 03:26:07;;;;;;;1.52;1.20;;;23.80;62.50;;;;;;5112734;28;20415;-70
2022/08/24 03:28:33;;;;;;;1.70;1.60;;;23.80;62.50;;;;;;5114310;28;20075;-70
2022/08/24 03:30:59;;;;;;;1.33;1.23;;;23.80;62.50;;;;;;5113043;28;20047;-70
2022/08/24 03:33:24;;;;;;;1.55;1.45;;;23.80;62.50;;;;;;5113252;28;20110;-70
2022/08/24 03:35:50;;;;;;;1.80;1.70;;;23.80;62.50;;;;;;5114094;28;20450;-69
2022/08/24 03:38:16;;;;;;;1.50;1.40;;;23.70;62.50;;;;;;5112775;28;20039;-69
2022/08/24 03:40:42;;;;;;;1.83;1.38;;;23.80;62.60;;;;;;5112821;28;20118;-70
2022/08/24 03:43:08;;;;;;;1.42;1.33;;;23.70;63.20;;;;;;5112995;28;20047;-70
2022/08/24 03:45:34;;;;;;;1.77;1.60;;;23.70;62.40;;;;;;5112636;28;20040;-70
2022/08/24 03:47:59;;;;;;;1.77;1.40;;;23.70;62.50;;;;;;5111808;28;20432;-70
2022/08/24 03:50:26;;;;;;;2.25;1.50;;;23.70;62.50;;;;;;5114016;28;20035;-69
2022/08/24 03:52:52;;;;;;;1.30;1.20;;;23.80;62.50;;;;;;5112459;28;20044;-70
2022/08/24 03:55:19;;;;;;;1.60;1.50;;;23.70;62.50;;;;;;5112547;28;20035;-70
2022/08/24 03:57:45;;;;;;;1.48;1.38;;;23.70;62.50;;;;;;5113676;28;20084;-69
2022/08/24 04:00:12;;;;;;;2.20;1.50;;;23.70;62.50;;;;;;5113739;28;20114;-70
2022/08/24 04:02:38;;;;;;;1.40;1.27;;;23.70;62.50;;;;;;5112353;28;20043;-70
2022/08/24 04:05:06;;;;;;;1.00;0.90;;;23.70;62.50;;;;;;5112408;28;20101;-70
2022/08/24 04:07:31;;;;;;;1.58;1.48;;;23.70;62.50;;;;;;5112089;28;20032;-69
2022/08/24 04:09:57;;;;;;;1.58;1.48;;;23.70;62.50;;;;;;5112291;28;20050;-70
2022/08/24 04:12:23;;;;;;;1.50;1.40;;;23.70;62.50;;;;;;5112454;28;20067;-70
2022/08/24 04:14:51;;;;;;;1.17;1.08;;;23.70;62.50;;;;;;5112192;28;20493;-70
2022/08/24 04:17:17;;;;;;;1.40;1.10;;;23.70;62.50;;;;;;5112372;28;20364;-70
2022/08/24 04:19:56;;;;;;;1.50;1.08;;;23.70;62.50;;;;;;5112430;28;20055;-70
2022/08/24 04:22:23;;;;;;;1.25;0.95;;;23.70;62.50;;;;;;5112396;28;20494;-70
2022/08/24 04:24:49;;;;;;;1.42;1.33;;;23.60;62.40;;;;;;5111642;28;20047;-70
2022/08/24 04:27:15;;;;;;;1.25;1.15;;;23.60;62.40;;;;;;5112138;28;20054;-70
2022/08/24 04:29:41;;;;;;;1.30;1.20;;;23.70;62.50;;;;;;5111725;28;20044;-70
2022/08/24 04:32:06;;;;;;;1.65;1.55;;;23.60;62.40;;;;;;5111800;28;20054;-70
2022/08/24 04:34:32;;;;;;;2.47;1.02;;;23.60;62.40;;;;;;5113006;28;20201;-70
2022/08/24 04:36:58;;;;;;;1.38;1.27;;;23.70;62.50;;;;;;5112950;28;20036;-70
2022/08/24 04:39:23;;;;;;;1.50;1.25;;;23.60;62.40;;;;;;5111902;28;20080;-70
2022/08/24 04:41:49;;;;;;;1.10;1.00;;;23.60;62.40;;;;;;5111867;28;20043;-70
2022/08/24 04:44:15;;;;;;;1.60;1.10;;;23.60;62.40;;;;;;5111383;28;20502;-70
2022/08/24 04:46:40;;;;;;;1.58;1.30;;;23.60;62.40;;;;;;5111548;28;20043;-70
2022/08/24 04:49:07;;;;;;;1.38;1.25;;;23.60;62.40;;;;;;5111460;28;20035;-70
2022/08/24 04:51:33;;;;;;;1.15;1.05;;;23.60;62.40;;;;;;5111746;28;20039;-70
2022/08/24 04:53:59;;;;;;;1.30;1.20;;;23.60;62.40;;;;;;5111427;28;20547;-70
2022/08/24 04:56:25;;;;;;;1.48;0.90;;;23.60;62.40;;;;;;5111672;28;20360;-70
2022/08/24 04:58:52;;;;;;;1.35;1.25;;;23.60;62.40;;;;;;5111422;28;20050;-70
2022/08/24 05:01:20;;;;;;;1.50;1.08;;;23.60;62.40;;;;;;5111301;28;20114;-70
2022/08/24 05:03:48;;;;;;;1.13;1.00;;;23.60;62.40;;;;;;5111347;28;20039;-70
2022/08/24 05:06:15;;;;;;;1.48;1.27;;;23.50;62.40;;;;;;5110983;28;20083;-70
2022/08/24 05:08:42;;;;;;;1.05;0.95;;;23.60;62.40;;;;;;5111435;28;20036;-70
2022/08/24 05:11:08;;;;;;;1.60;1.30;;;23.50;62.30;;;;;;5111529;28;20039;-70
2022/08/24 05:13:35;;;;;;;1.40;1.20;;;23.50;62.30;;;;;;5111517;28;20050;-70
2022/08/24 05:16:00;;;;;;;1.40;0.90;;;23.50;62.30;;;;;;5111328;28;20043;-70
2022/08/24 05:18:28;;;;;;;1.30;1.20;;;23.50;62.30;;;;;;5111128;28;20535;-70
2022/08/24 05:20:55;;;;;;;1.40;1.00;;;23.50;62.30;;;;;;5111112;28;20407;-70
2022/08/24 05:23:21;;;;;;;1.85;1.02;;;23.50;62.30;;;;;;5111079;28;20044;-70
2022/08/24 05:25:47;;;;;;;1.25;1.00;;;23.50;62.30;;;;;;5109562;28;20408;-70
2022/08/24 05:28:13;;;;;;;1.00;0.90;;;23.50;62.30;;;;;;5112320;28;20036;-70
2022/08/24 05:30:39;;;;;;;1.20;0.93;;;23.50;62.30;;;;;;5109874;28;20032;-70
2022/08/24 05:33:04;;;;;;;1.50;1.40;;;23.50;62.30;;;;;;5112239;28;20051;-70
2022/08/24 05:35:35;;;;;;;1.20;1.10;;;23.50;62.30;;;;;;5110839;28;20039;-69
2022/08/24 05:38:01;;;;;;;1.27;1.17;;;23.50;62.30;;;;;;5111261;28;20141;-70
2022/08/24 05:40:26;;;;;;;1.83;1.17;;;23.50;62.30;;;;;;5110782;28;20503;-70
2022/08/24 05:42:52;;;;;;;1.33;0.80;;;23.50;62.30;;;;;;5110818;28;20127;-70
2022/08/24 05:45:18;;;;;;;1.35;1.25;;;23.50;62.30;;;;;;5110825;28;20046;-70
2022/08/24 05:47:44;;;;;;;1.20;1.10;;;23.50;62.40;;;;;;5110662;28;20465;-70
2022/08/24 05:50:10;;;;;;;1.02;0.90;;;23.50;62.30;;;;;;5111105;28;20051;-70
2022/08/24 05:52:36;;;;;;;1.15;1.05;;;23.50;62.30;;;;;;5110659;28;20475;-70
2022/08/24 05:55:02;;;;;;;1.10;1.00;;;23.50;62.30;;;;;;5128168;28;20043;-70
2022/08/24 05:57:32;;;;;;;1.15;1.05;;;23.50;62.30;;;;;;5110700;28;20118;-70
2022/08/24 05:59:58;;;;;;;1.47;1.20;;;23.50;62.30;;;;;;5110760;28;20118;-70
2022/08/24 06:02:23;;;;;;;1.20;1.10;;;23.50;62.30;;;;;;5110912;28;20131;-70
2022/08/24 06:04:49;;;;;;;1.35;1.23;;;23.50;62.30;;;;;;5111924;28;20579;-70
2022/08/24 06:07:15;;;;;;;1.13;1.02;;;23.50;62.30;;;;;;5110379;28;20483;-70
2022/08/24 06:09:41;;;;;;;3.60;1.50;;;23.50;62.30;;;;;;5108986;28;20028;-70
2022/08/24 06:12:08;;;;;;;4.00;1.83;;;23.50;63.10;;;;;;5113387;28;20521;-69
2022/08/24 06:14:35;;;;;;;5.35;4.32;;;23.50;62.40;;;;;;5115298;28;20043;-75
2022/08/24 06:17:04;;;;;;;4.55;3.90;;;23.50;62.70;;;;;;5113904;28;20398;-73
2022/08/24 06:19:31;;;;;;;7.18;5.18;;;23.50;62.80;;;;;;5115034;28;20418;-73
2022/08/24 06:21:57;;;;;;;6.53;5.90;;;23.50;62.90;;;;;;5114100;28;20509;-71
2022/08/24 06:27:20;;;;;;;7.60;6.25;;;23.60;63.20;;;;;;5113730;28;20552;-72
2022/08/24 06:27:25;;;;;;;7.70;6.80;;;23.60;63.50;;;;;;5112715;28;20086;-73
2022/08/24 06:32:33;;;;;;;8.65;7.75;;;23.60;63.80;;;;;;5127044;27;1203820;-72
2022/08/24 06:34:59;;;;;;;11.10;10.10;;;23.70;64.00;;;;;;5130960;27;20039;-75
2022/08/24 06:37:26;;;;;;;10.57;9.60;;;23.70;64.30;;;;;;5129331;27;20126;-74
2022/08/24 06:39:53;;;;;;;10.13;9.23;;;23.70;64.30;;;;;;5131080;27;20070;-70
2022/08/24 06:42:18;;;;;;;15.43;10.90;;;23.70;64.60;;;;;;5132529;27;20420;-72
2022/08/24 06:44:44;;;;;;;14.55;9.30;;;23.70;64.80;;;;;;5130950;27;20027;-72
2022/08/24 06:47:10;;;;;;;11.30;8.38;;;23.70;64.80;;;;;;5131214;27;20074;-71
2022/08/24 06:49:36;;;;;;;11.43;8.70;;;23.70;64.80;;;;;;5131151;27;20043;-71
2022/08/24 06:52:04;;;;;;;10.93;7.53;;;23.80;65.00;;;;;;5130717;27;20047;-71
2022/08/24 06:54:31;;;;;;;12.95;8.50;;;23.70;64.90;;;;;;5150504;27;20110;-71
2022/08/24 06:56:57;;;;;;;14.55;8.10;;;23.70;64.90;;;;;;5130711;27;20153;-71
2022/08/24 06:59:27;;;;;;;9.57;8.57;;;23.80;65.10;;;;;;5131132;27;20054;-72
2022/08/24 07:01:54;;;;;;;10.43;9.43;;;23.80;65.10;;;;;;5148951;27;20127;-69
2022/08/24 07:04:24;;;;;;;10.68;8.07;;;23.80;65.30;;;;;;5125365;27;20043;-69
2022/08/24 07:06:51;;;;;;;9.68;7.97;;;23.80;65.30;;;;;;5130937;27;20394;-69
2022/08/24 07:09:17;;;;;;;8.27;7.43;;;23.80;65.30;;;;;;5131503;27;20122;-70
2022/08/24 07:11:42;;;;;;;9.57;7.30;;;23.80;65.30;;;;;;5131335;27;20031;-69
2022/08/24 07:14:08;;;;;;;7.45;6.35;;;23.80;65.20;;;;;;5130940;27;20501;-69
2022/08/24 07:16:35;;;;;;;7.05;6.45;;;23.80;65.30;;;;;;5129737;27;20031;-69
2022/08/24 07:19:03;;;;;;;8.75;7.80;;;23.80;65.30;;;;;;5130937;27;20115;-72
2022/08/24 07:21:31;;;;;;;8.55;7.53;;;23.80;65.40;;;;;;5128053;27;20062;-70
2022/08/24 07:23:59;;;;;;;12.73;11.45;;;23.80;65.50;;;;;;5130527;27;20121;-70
2022/08/24 07:26:28;;;;;;;8.27;7.50;;;23.90;65.90;;;;;;5131564;27;20039;-71
2022/08/24 07:29:03;;;;;;;8.23;7.25;;;23.90;65.90;;;;;;5130015;27;20031;-70
2022/08/24 07:31:31;;;;;;;7.70;6.90;;;23.90;65.90;;;;;;5121448;27;20066;-70
2022/08/24 07:33:57;;;;;;;8.32;7.47;;;23.90;65.90;;;;;;5099349;27;20045;-66
2022/08/24 07:36:22;;;;;;;7.38;6.25;;;23.90;65.90;;;;;;5148277;27;20118;-65
2022/08/24 07:38:51;;;;;;;9.27;5.45;;;23.90;65.90;;;;;;5131031;27;20482;-68
2022/08/24 07:41:17;;;;;;;11.95;5.63;;;23.90;65.90;;;;;;5130985;27;20034;-66
2022/08/24 07:43:46;;;;;;;6.88;5.38;;;24.00;66.00;;;;;;5118013;27;20043;-67
2022/08/24 07:46:12;;;;;;;6.35;4.80;;;24.00;66.00;;;;;;5135474;27;20039;-68
2022/08/24 07:48:38;;;;;;;5.32;4.80;;;24.00;65.90;;;;;;5117296;27;20071;-68
2022/08/24 07:51:15;;;;;;;13.93;4.20;;;24.00;65.80;;;;;;5116948;27;20502;-68
2022/08/24 07:53:42;;;;;;;8.57;4.15;;;24.00;65.70;;;;;;5117288;27;20084;-70
2022/08/24 07:56:09;;;;;;;12.95;4.15;;;24.00;65.60;;;;;;5117328;27;20050;-68
2022/08/24 07:58:35;;;;;;;13.05;3.85;;;24.10;65.60;;;;;;5116967;27;20043;-69
2022/08/24 08:01:03;;;;;;;23.10;4.35;;;24.10;65.50;;;;;;5116332;27;20027;-69
2022/08/24 08:03:32;;;;;;;16.77;3.60;;;24.10;65.50;;;;;;5115187;27;20047;-67
2022/08/24 08:06:02;;;;;;;21.85;5.10;;;24.10;65.40;;;;;;5116383;27;20054;-68
2022/08/24 08:08:28;;;;;;;14.23;4.65;;;24.10;65.50;;;;;;5116856;27;20074;-67
2022/08/24 08:10:56;;;;;;;13.90;4.55;;;24.10;65.50;;;;;;5135029;27;20069;-67
2022/08/24 08:13:21;;;;;;;11.95;3.85;;;24.10;65.50;;;;;;5116284;27;20046;-67
2022/08/24 08:15:48;;;;;;;6.63;2.92;;;24.10;65.50;;;;;;5135245;27;20035;-67
2022/08/24 08:18:14;;;;;;;10.77;3.38;;;24.00;65.40;;;;;;5116778;27;20039;-67
2022/08/24 08:20:41;;;;;;;7.53;3.60;;;24.00;65.40;;;;;;5116523;27;20043;-68
2022/08/24 08:25:56;;;;;;;7.38;2.97;;;24.00;65.40;;;;;;5134527;27;20058;-67
2022/08/24 08:28:24;;;;;;;8.73;3.85;;;24.00;65.40;;;;;;5116277;27;20043;-67
2022/08/24 08:30:51;;;;;;;10.02;3.53;;;24.00;65.40;;;;;;5115009;27;20129;-67
2022/08/24 08:33:17;;;;;;;10.40;2.80;;;24.00;65.30;;;;;;5116277;27;20058;-67
2022/08/24 08:35:43;;;;;;;8.82;3.42;;;23.90;65.30;;;;;;5116362;27;20125;-67
2022/08/24 08:38:09;;;;;;;10.43;4.10;;;23.90;65.30;;;;;;5116170;27;20032;-67
2022/08/24 08:41:09;;;;;;;5.50;3.13;;;23.90;65.20;;;;;;5116109;27;20470;-67
2022/08/24 08:44:00;;;;;;;7.03;2.72;;;23.90;65.30;;;;;;5116289;27;20394;-67
2022/08/24 08:49:18;;;;;;;5.70;3.30;;;23.90;65.30;;;;;;5129750;27;20400;-67
2022/08/24 09:06:11;;;;;;;4.97;2.85;;;23.90;64.90;;;;;;5130119;27;20403;-66
2022/08/24 09:14:21;;;;;;;4.57;2.47;;;23.90;64.80;;;;;;5130691;27;20402;-66
2022/08/24 09:22:20;;;;;;;3.67;2.30;;;23.90;64.50;;;;;;5130206;27;20099;-66
2022/08/24 09:25:05;;;;;;;2.90;2.08;;;23.90;64.40;;;;;;5111706;28;20050;-65
2022/08/24 09:39:04;;;;;;;4.15;2.60;;;23.90;64.20;;;;;;5129327;27;20350;-65
2022/08/24 09:42:09;;;;;;;2.70;1.88;;;23.90;64.00;;;;;;5128420;27;20044;-66
2022/08/24 09:50:52;;;;;;;3.20;1.70;;;24.00;63.80;;;;;;5130176;27;20394;-66
2022/08/24 10:19:04;;;;;;;2.55;1.52;;;24.20;63.20;;;;;;5129947;27;20403;-66
2022/08/24 10:33:02;;;;;;;2.70;1.45;;;24.20;62.80;;;;;;5130173;27;20763;-66
2022/08/24 10:35:37;;;;;;;4.22;2.00;;;24.20;62.90;;;;;;5127993;28;20049;-66
2022/08/24 10:44:34;;;;;;;3.33;1.80;;;24.20;62.90;;;;;;5130277;27;20354;-66
2022/08/24 10:47:11;;;;;;;1.65;1.52;;;24.20;63.00;;;;;;5127312;27;20051;-66
2022/08/24 10:55:24;;;;;;;3.42;2.30;;;24.30;63.00;;;;;;5089471;28;20356;-66
2022/08/24 10:58:12;;;;;;;2.40;1.73;;;24.20;63.00;;;;;;5087857;28;20135;-66
2022/08/24 11:00:38;;;;;;;2.10;1.90;;;24.30;63.10;;;;;;5088076;28;20111;-66
2022/08/24 11:05:48;;;;;;;1.98;1.88;;;24.30;63.10;;;;;;5128858;27;20423;-67
2022/08/24 11:08:20;;;;;;;1.70;1.52;;;24.20;63.20;;;;;;5128875;27;20556;-66
2022/08/24 11:11:10;;;;;;;2.03;1.90;;;24.20;63.10;;;;;;5128851;28;20031;-67
2022/08/24 11:13:48;;;;;;;1.73;1.63;;;24.30;63.20;;;;;;5128923;28;20036;-67
2022/08/24 11:16:23;;;;;;;1.60;1.50;;;24.20;63.20;;;;;;5128845;28;20289;-67
2022/08/24 11:18:53;;;;;;;2.95;1.77;;;24.20;63.90;;;;;;5128718;28;20506;-67
2022/08/24 11:21:40;;;;;;;1.98;1.67;;;24.20;63.20;;;;;;5129862;27;20123;-67
2022/08/24 11:27:00;;;;;;;2.08;1.90;;;24.20;63.30;;;;;;5130050;27;20403;-67
2022/08/24 11:29:48;;;;;;;2.03;1.83;;;24.20;63.30;;;;;;5129229;28;20090;-67
2022/08/24 11:32:41;;;;;;;2.13;1.63;;;24.30;63.30;;;;;;5145576;27;20047;-67
2022/08/24 11:37:48;;;;;;;1.90;1.23;;;24.20;63.30;;;;;;5127740;27;20394;-65
2022/08/24 11:40:20;;;;;;;3.80;1.13;;;24.30;64.00;;;;;;5128192;28;20486;-66
2022/08/24 11:54:34;;;;;;;1.00;0.80;;;24.60;64.80;;;;;;5130067;27;20354;-66
2022/08/24 12:13:55;;;;;;;1.98;0.82;;;24.90;64.60;;;;;;5087776;28;20360;-69
2022/08/24 12:19:30;;;;;;;1.90;0.80;;;24.90;65.40;;;;;;5078752;28;20160;-67
2022/08/24 12:21:59;;;;;;;1.65;0.60;;;24.90;65.50;;;;;;5069051;28;20044;-69
2022/08/24 12:24:34;;;;;;;3.17;1.07;;;24.90;65.50;;;;;;5067544;28;20060;-67
2022/08/24 12:38:01;;;;;;;1.85;0.75;;;25.00;65.70;;;;;;5129845;27;20407;-67
2022/08/24 12:45:47;;;;;;;3.85;0.95;;;25.00;65.70;;;;;;5129848;27;20776;-67
2022/08/24 12:54:18;;;;;;;3.45;0.88;;;25.10;65.80;;;;;;5129914;27;20422;-67
2022/08/24 13:05:07;;;;;;;1.95;0.88;;;25.20;65.90;;;;;;5096156;27;20460;-66
2022/08/24 13:07:41;;;;;;;1.60;0.60;;;25.20;65.60;;;;;;5100013;28;20037;-67
2022/08/24 13:10:33;;;;;;;2.58;1.00;;;25.30;65.20;;;;;;5102121;28;20320;-67
2022/08/24 13:15:52;;;;;;;1.80;0.80;;;25.30;64.50;;;;;;5115464;27;20397;-67
2022/08/24 13:20:58;;;;;;;6.57;1.00;;;25.40;63.80;;;;;;5110177;27;20687;-67
2022/08/24 13:23:23;;;;;;;3.55;0.80;;;25.50;63.70;;;;;;5115556;28;20101;-66
2022/08/24 14:02:20;;;;;;;2.15;0.60;;;25.70;62.20;;;;;;5115490;27;20420;-67
2022/08/24 14:10:47;;;;;;;1.20;0.68;;;25.70;62.50;;;;;;5115673;27;20435;-67
2022/08/24 14:21:59;;;;;;;2.55;0.70;;;25.80;62.30;;;;;;5118193;27;20366;-66
2022/08/24 14:24:36;;;;;;;2.03;0.70;;;25.80;61.90;;;;;;5121323;28;20055;-67
2022/08/24 14:27:07;;;;;;;1.40;0.70;;;25.80;61.80;;;;;;5103744;28;20040;-66
2022/08/24 14:29:36;;;;;;;1.00;0.47;;;25.80;61.70;;;;;;5102812;28;20123;-67
2022/08/24 14:35:01;;;;;;;1.63;0.82;;;25.80;61.70;;;;;;5118485;27;20434;-66
2022/08/24 14:40:32;;;;;;;1.33;0.70;;;25.90;62.10;;;;;;5107667;27;20878;-67
2022/08/24 14:43:14;;;;;;;1.55;0.70;;;26.00;61.50;;;;;;5114149;28;20093;-65
2022/08/24 14:46:20;;;;;;;2.35;1.27;;;26.00;61.20;;;;;;5104257;28;20044;-66
2022/08/24 14:57:48;;;;;;;7.22;0.82;;;26.00;60.50;;;;;;5114383;27;20424;-68
2022/08/24 15:00:22;;;;;;;2.28;0.77;;;25.90;60.60;;;;;;5109197;28;20502;-68
2022/08/24 15:05:51;;;;;;;4.10;1.13;;;25.80;61.00;;;;;;5118120;27;20354;-68
2022/08/24 15:08:41;;;;;;;1.83;0.85;;;25.80;61.10;;;;;;5122847;28;20043;-68
2022/08/24 15:19:18;;;;;;;3.33;0.60;;;25.70;61.10;;;;;;5089454;27;20846;-68
2022/08/24 15:27:39;;;;;;;1.63;1.00;;;25.60;61.70;;;;;;5089455;28;20414;-68
2022/08/24 15:30:16;;;;;;;2.58;1.13;;;25.50;61.70;;;;;;5088142;28;20044;-68
2022/08/24 15:32:47;;;;;;;3.47;0.95;;;25.50;61.90;;;;;;5088383;28;20434;-68
2022/08/24 15:35:32;;;;;;;2.67;1.10;;;25.50;61.90;;;;;;5088256;28;20059;-68
2022/08/24 15:44:08;;;;;;;1.67;0.60;;;25.40;62.00;;;;;;5130361;27;20905;-68
2022/08/24 15:49:21;;;;;;;1.25;0.82;;;25.40;62.20;;;;;;5089464;27;20356;-68
2022/08/24 15:54:32;;;;;;;1.40;0.57;;;25.40;62.20;;;;;;5130227;27;20407;-68
2022/08/24 16:02:29;;;;;;;1.08;0.80;;;25.40;62.20;;;;;;5130211;27;20403;-68
2022/08/24 16:08:05;;;;;;;1.77;0.68;;;25.40;62.40;;;;;;5130227;27;20353;-68
2022/08/24 16:18:56;;;;;;;1.35;0.50;;;25.40;62.40;;;;;;5109789;27;20380;-68
2022/08/24 16:21:29;;;;;;;4.30;0.80;;;25.30;62.40;;;;;;5091491;28;20081;-68
2022/08/24 16:24:02;;;;;;;1.02;0.93;;;25.40;62.60;;;;;;5091700;28;20039;-69
2022/08/24 16:26:32;;;;;;;0.77;0.70;;;25.40;62.60;;;;;;5091617;28;20032;-68
2022/08/24 16:28:58;;;;;;;0.93;0.60;;;25.30;62.70;;;;;;5109686;28;20043;-69
2022/08/24 16:31:45;;;;;;;4.53;0.90;;;25.40;62.60;;;;;;5089033;28;20086;-67
2022/08/24 16:34:19;;;;;;;0.65;0.40;;;25.40;63.00;;;;;;5093042;28;20043;-67
2022/08/24 16:36:45;;;;;;;1.13;0.50;;;25.40;63.30;;;;;;5071167;28;20044;-68
2022/08/24 16:39:11;;;;;;;1.95;0.57;;;25.50;63.30;;;;;;5079835;28;20038;-73
2022/08/24 16:41:38;;;;;;;1.67;0.52;;;25.60;63.20;;;;;;5090718;28;20115;-67
2022/08/24 16:44:06;;;;;;;1.48;0.50;;;25.60;63.20;;;;;;5107347;28;20036;-68
2022/08/24 16:46:32;;;;;;;1.92;0.80;;;25.70;63.40;;;;;;5107963;28;20044;-68
2022/08/24 16:48:58;;;;;;;1.65;0.70;;;25.70;63.40;;;;;;5073831;28;20391;-68
2022/08/24 16:51:23;;;;;;;1.30;0.47;;;25.70;63.40;;;;;;5090252;28;20548;-68
2022/08/24 16:53:49;;;;;;;1.63;0.73;;;25.80;63.40;;;;;;5090075;28;20040;-68
2022/08/24 16:56:15;;;;;;;2.55;0.60;;;25.80;63.60;;;;;;5074662;28;20442;-68
2022/08/24 16:58:41;;;;;;;1.35;0.73;;;25.90;63.70;;;;;;5086618;28;20040;-67
2022/08/24 17:01:06;;;;;;;2.00;0.60;;;25.90;63.50;;;;;;5078159;28;20032;-67
2022/08/24 17:03:32;;;;;;;2.45;1.20;;;25.90;63.20;;;;;;5089580;28;20092;-67
2022/08/24 17:05:58;;;;;;;2.40;0.55;;;25.90;63.00;;;;;;5090548;28;20620;-68
2022/08/24 17:08:26;;;;;;;1.92;0.40;;;26.00;63.00;;;;;;5090335;28;20616;-67
2022/08/24 17:10:53;;;;;;;19.50;2.30;;;26.00;62.90;;;;;;5088381;28;20048;-69
2022/08/24 17:13:19;;;;;;;18.27;1.98;;;26.00;63.00;;;;;;5107952;28;20036;-68
2022/08/24 17:15:44;;;;;;;41.55;4.85;;;26.00;63.00;;;;;;5089825;28;20444;-67
2022/08/24 17:18:11;;;;;;;47.40;4.15;;;26.00;63.20;;;;;;5089295;28;20048;-68
2022/08/24 17:20:37;;;;;;;41.25;4.32;;;26.00;63.60;;;;;;5089750;28;20081;-66
2022/08/24 17:23:03;;;;;;;23.27;3.35;;;26.00;64.00;;;;;;5089663;28;20028;-68
2022/08/24 17:25:29;;;;;;;21.42;3.08;;;26.10;64.50;;;;;;5107838;28;20050;-67
2022/08/24 17:27:57;;;;;;;33.17;3.25;;;26.10;65.30;;;;;;5087776;28;20048;-68
2022/08/24 17:30:23;;;;;;;24.65;3.53;;;26.20;66.10;;;;;;5075699;28;20048;-66
2022/08/24 17:32:50;;;;;;;11.70;2.42;;;26.20;66.30;;;;;;5093593;28;20040;-66
2022/08/24 17:35:16;;;;;;;19.25;2.90;;;26.30;66.00;;;;;;5075825;28;20578;-65
2022/08/24 17:37:42;;;;;;;13.43;2.03;;;26.30;65.90;;;;;;5075235;28;20062;-65
2022/08/24 17:40:13;;;;;;;14.50;2.28;;;26.30;65.90;;;;;;5075704;28;20131;-65
2022/08/24 17:42:38;;;;;;;11.90;2.08;;;26.30;65.90;;;;;;5093555;28;20043;-66
2022/08/24 17:45:04;;;;;;;7.90;1.80;;;26.30;65.90;;;;;;5075703;28;20032;-67
2022/08/24 17:47:32;;;;;;;9.05;1.70;;;26.20;66.00;;;;;;5075381;28;20043;-66
2022/08/24 17:49:58;;;;;;;13.35;2.47;;;26.20;66.00;;;;;;5093554;28;20036;-67